Pulau Tioman — 3EYO9 — position and weather

sailwx.info

Track history (hours):
 
Tides and Currents Weather Stations Pressure Air Temp Water Temp Dewpoint Dewpoint Depression Visibility Wind Speed Wind Dir Waves Ship Positions

Pulau Tioman

Last reported at 2017-Sep-12 07:13 UTC. Time now 2017-Sep-23 12:47 UTC.
Position N 35°13' E 139°46'.
Warning: this ship's position is 11 days out of date.

Length 120 m; draft 6.5 m.

Type: Cargo ship. MMSI: 356613000.

Date/timePositionNaut miles runAvg speedWind from/ knotsBaromVisibWave heightAir tempDewpointWater temp
2017-Sep-12 07:13N 35°13' E 139°46'411.6
2017-Sep-12 06:52N 35°17' E 139°45'412.2
2017-Sep-12 06:30N 35°21' E 139°43'510.2
2017-Sep-12 06:00N 35°26' E 139°43'2 2.9
2017-Sep-12 05:26N 35°27' E 139°41'0 0.0
2017-Sep-12 04:56N 35°27' E 139°41'0 0.0
2017-Sep-12 04:26N 35°27' E 139°41'0 0.0
2017-Sep-12 03:56N 35°27' E 139°41'0 0.0
2017-Sep-12 03:26N 35°27' E 139°41'0 0.0
2017-Sep-12 02:56N 35°27' E 139°41'0 0.0
2017-Sep-12 02:26N 35°27' E 139°41'0 0.0
2017-Sep-12 01:56N 35°27' E 139°41'0 0.0
2017-Sep-12 01:26N 35°27' E 139°41'0 0.0
2017-Sep-12 00:56N 35°27' E 139°41'0 0.0
2017-Sep-12 00:26N 35°27' E 139°41'0 0.0
2017-Sep-11 23:56N 35°27' E 139°41'0 0.0
2017-Sep-11 23:26N 35°27' E 139°41'0 0.0
2017-Sep-11 22:56N 35°27' E 139°41'0 0.0
2017-Sep-11 22:26N 35°27' E 139°41'0 0.0
2017-Sep-11 21:56N 35°27' E 139°41'0 0.0
2017-Sep-11 21:20N 35°27' E 139°41'0 0.0
2017-Sep-11 20:56N 35°27' E 139°41'0 0.0
2017-Sep-11 20:26N 35°27' E 139°41'0 0.0
2017-Sep-11 19:56N 35°27' E 139°41'0 0.0
2017-Sep-11 19:26N 35°27' E 139°41'0 0.0
2017-Sep-11 18:56N 35°27' E 139°41'0 0.0
2017-Sep-11 18:26N 35°27' E 139°41'0 0.0
2017-Sep-11 17:56N 35°27' E 139°41'0 0.0
2017-Sep-11 17:26N 35°27' E 139°41'0 0.0
2017-Sep-11 16:56N 35°27' E 139°41'0 0.0
2017-Sep-11 16:26N 35°27' E 139°41'0 0.0
2017-Sep-11 15:56N 35°27' E 139°41'0 0.0
2017-Sep-11 15:26N 35°27' E 139°41'0 0.0
2017-Sep-11 14:56N 35°27' E 139°41'0 0.0
2017-Sep-11 14:26N 35°27' E 139°41'0 0.0
2017-Sep-11 13:56N 35°27' E 139°41'0 0.0
2017-Sep-11 13:26N 35°27' E 139°41'0 0.0
2017-Sep-11 12:56N 35°27' E 139°41'0 0.0
2017-Sep-11 12:26N 35°27' E 139°41'0 0.0
2017-Sep-11 11:56N 35°27' E 139°41'0 0.0
2017-Sep-11 11:26N 35°27' E 139°41'0 0.0
2017-Sep-11 10:56N 35°27' E 139°41'0 0.0
2017-Sep-11 10:26N 35°27' E 139°41'0 0.0
2017-Sep-11 09:56N 35°27' E 139°41'0 0.0
2017-Sep-11 09:26N 35°27' E 139°41'0 0.0
2017-Sep-11 08:56N 35°27' E 139°41'0 0.0
2017-Sep-11 08:26N 35°27' E 139°41'0 0.0
2017-Sep-11 07:56N 35°27' E 139°41'0 0.0
2017-Sep-11 07:26N 35°27' E 139°41'0 0.0
2017-Sep-11 06:56N 35°27' E 139°41'0 0.0
2017-Sep-11 06:26N 35°27' E 139°41'0 0.0
2017-Sep-11 05:56N 35°27' E 139°41'0 0.0
2017-Sep-11 05:26N 35°27' E 139°41'0 0.0
2017-Sep-11 04:56N 35°27' E 139°41'1 3.1
2017-Sep-11 04:30N 35°26' E 139°42'0 0.9
2017-Sep-11 03:57N 35°26' E 139°42'0 0.0
2017-Sep-11 03:27N 35°26' E 139°42'0 0.0
2017-Sep-11 02:51N 35°26' E 139°42'0 0.1
2017-Sep-11 02:27N 35°26' E 139°42'0 0.1
2017-Sep-11 01:57N 35°26' E 139°42'0 0.0
2017-Sep-11 01:27N 35°26' E 139°42'0 0.2
2017-Sep-11 01:00N 35°26' E 139°42'3 6.2
2017-Sep-11 00:30N 35°23' E 139°43'611.6
2017-Sep-11 00:00N 35°17' E 139°45'  
2017-Sep-07 17:27N 31°04' E 122°06'612.9
2017-Sep-07 17:00N 31°06' E 121°59'611.2
2017-Sep-07 16:30N 31°09' E 121°54'510.8
2017-Sep-07 16:00N 31°12' E 121°49'510.0
2017-Sep-07 15:30N 31°16' E 121°45'4 8.2
2017-Sep-07 14:59N 31°19' E 121°42'1 1.8
2017-Sep-07 14:30N 31°19' E 121°41'0 0.0
2017-Sep-07 14:00N 31°19' E 121°41'0 0.0
2017-Sep-07 13:30N 31°19' E 121°41'0 0.0
2017-Sep-07 12:54N 31°19' E 121°41'0 0.0
2017-Sep-07 12:18N 31°19' E 121°41'0 0.0
2017-Sep-07 12:00N 31°19' E 121°41'0 0.0
2017-Sep-07 11:30N 31°19' E 121°41'0 0.0
2017-Sep-07 11:00N 31°19' E 121°41'0 0.0
2017-Sep-07 10:30N 31°19' E 121°41'0 0.0
2017-Sep-07 09:48N 31°19' E 121°41'0 0.0
2017-Sep-07 09:24N 31°19' E 121°41'0 0.0
2017-Sep-07 09:00N 31°19' E 121°41'0 0.0
2017-Sep-07 08:30N 31°19' E 121°41'0 0.0
2017-Sep-07 08:00N 31°19' E 121°41'0 0.0
2017-Sep-07 07:30N 31°19' E 121°41'0 0.0
2017-Sep-07 07:00N 31°19' E 121°41'0 0.0
2017-Sep-07 06:24N 31°19' E 121°41'0 0.0
2017-Sep-07 06:00N 31°19' E 121°41'0 0.0
2017-Sep-07 05:30N 31°19' E 121°41'0 0.0
2017-Sep-07 05:00N 31°19' E 121°41'0 0.1
2017-Sep-07 04:30N 31°19' E 121°41'2 3.8
2017-Sep-07 04:00N 31°18' E 121°43'511.0
2017-Sep-07 03:30N 31°14' E 121°47'713.6
2017-Sep-07 03:00N 31°09' E 121°53'611.1
2017-Sep-07 02:30N 31°06' E 121°58'  
Track history (hours):
 
Tides and Currents Weather Stations Pressure Air Temp Water Temp Dewpoint Dewpoint Depression Visibility Wind Speed Wind Dir Waves Ship Positions

Pulau Tioman

Last reported at 2017-Sep-12 07:13 UTC. Time now 2017-Sep-23 12:47 UTC.
Position N 35°13' E 139°46'.
Warning: this ship's position is 11 days out of date.

Length 120 m; draft 6.5 m.

Type: Cargo ship. MMSI: 356613000.

Date/timePositionNaut miles runAvg speedWind from/ knotsBaromVisibWave heightAir tempDewpointWater temp
2017-Sep-12 07:13N 35°13' E 139°46'411.6
2017-Sep-12 06:52N 35°17' E 139°45'412.2
2017-Sep-12 06:30N 35°21' E 139°43'510.2
2017-Sep-12 06:00N 35°26' E 139°43'2 2.9
2017-Sep-12 05:26N 35°27' E 139°41'0 0.0
2017-Sep-12 04:56N 35°27' E 139°41'0 0.0
2017-Sep-12 04:26N 35°27' E 139°41'0 0.0
2017-Sep-12 03:56N 35°27' E 139°41'0 0.0
2017-Sep-12 03:26N 35°27' E 139°41'0 0.0
2017-Sep-12 02:56N 35°27' E 139°41'0 0.0
2017-Sep-12 02:26N 35°27' E 139°41'0 0.0
2017-Sep-12 01:56N 35°27' E 139°41'0 0.0
2017-Sep-12 01:26N 35°27' E 139°41'0 0.0
2017-Sep-12 00:56N 35°27' E 139°41'0 0.0
2017-Sep-12 00:26N 35°27' E 139°41'0 0.0
2017-Sep-11 23:56N 35°27' E 139°41'0 0.0
2017-Sep-11 23:26N 35°27' E 139°41'0 0.0
2017-Sep-11 22:56N 35°27' E 139°41'0 0.0
2017-Sep-11 22:26N 35°27' E 139°41'0 0.0
2017-Sep-11 21:56N 35°27' E 139°41'0 0.0
2017-Sep-11 21:20N 35°27' E 139°41'0 0.0
2017-Sep-11 20:56N 35°27' E 139°41'0 0.0
2017-Sep-11 20:26N 35°27' E 139°41'0 0.0
2017-Sep-11 19:56N 35°27' E 139°41'0 0.0
2017-Sep-11 19:26N 35°27' E 139°41'0 0.0
2017-Sep-11 18:56N 35°27' E 139°41'0 0.0
2017-Sep-11 18:26N 35°27' E 139°41'0 0.0
2017-Sep-11 17:56N 35°27' E 139°41'0 0.0
2017-Sep-11 17:26N 35°27' E 139°41'0 0.0
2017-Sep-11 16:56N 35°27' E 139°41'0 0.0
2017-Sep-11 16:26N 35°27' E 139°41'0 0.0
2017-Sep-11 15:56N 35°27' E 139°41'0 0.0
2017-Sep-11 15:26N 35°27' E 139°41'0 0.0
2017-Sep-11 14:56N 35°27' E 139°41'0 0.0
2017-Sep-11 14:26N 35°27' E 139°41'0 0.0
2017-Sep-11 13:56N 35°27' E 139°41'0 0.0
2017-Sep-11 13:26N 35°27' E 139°41'0 0.0
2017-Sep-11 12:56N 35°27' E 139°41'0 0.0
2017-Sep-11 12:26N 35°27' E 139°41'0 0.0
2017-Sep-11 11:56N 35°27' E 139°41'0 0.0
2017-Sep-11 11:26N 35°27' E 139°41'0 0.0
2017-Sep-11 10:56N 35°27' E 139°41'0 0.0
2017-Sep-11 10:26N 35°27' E 139°41'0 0.0
2017-Sep-11 09:56N 35°27' E 139°41'0 0.0
2017-Sep-11 09:26N 35°27' E 139°41'0 0.0
2017-Sep-11 08:56N 35°27' E 139°41'0 0.0
2017-Sep-11 08:26N 35°27' E 139°41'0 0.0
2017-Sep-11 07:56N 35°27' E 139°41'0 0.0
2017-Sep-11 07:26N 35°27' E 139°41'0 0.0
2017-Sep-11 06:56N 35°27' E 139°41'0 0.0
2017-Sep-11 06:26N 35°27' E 139°41'0 0.0
2017-Sep-11 05:56N 35°27' E 139°41'0 0.0
2017-Sep-11 05:26N 35°27' E 139°41'0 0.0
2017-Sep-11 04:56N 35°27' E 139°41'1 3.1
2017-Sep-11 04:30N 35°26' E 139°42'0 0.9
2017-Sep-11 03:57N 35°26' E 139°42'0 0.0
2017-Sep-11 03:27N 35°26' E 139°42'0 0.0
2017-Sep-11 02:51N 35°26' E 139°42'0 0.1
2017-Sep-11 02:27N 35°26' E 139°42'0 0.1
2017-Sep-11 01:57N 35°26' E 139°42'0 0.0
2017-Sep-11 01:27N 35°26' E 139°42'0 0.2
2017-Sep-11 01:00N 35°26' E 139°42'3 6.2
2017-Sep-11 00:30N 35°23' E 139°43'611.6
2017-Sep-11 00:00N 35°17' E 139°45'  
2017-Sep-07 17:27N 31°04' E 122°06'612.9
2017-Sep-07 17:00N 31°06' E 121°59'611.2
2017-Sep-07 16:30N 31°09' E 121°54'510.8
2017-Sep-07 16:00N 31°12' E 121°49'510.0
2017-Sep-07 15:30N 31°16' E 121°45'4 8.2
2017-Sep-07 14:59N 31°19' E 121°42'1 1.8
2017-Sep-07 14:30N 31°19' E 121°41'0 0.0
2017-Sep-07 14:00N 31°19' E 121°41'0 0.0
2017-Sep-07 13:30N 31°19' E 121°41'0 0.0
2017-Sep-07 12:54N 31°19' E 121°41'0 0.0
2017-Sep-07 12:18N 31°19' E 121°41'0 0.0
2017-Sep-07 12:00N 31°19' E 121°41'0 0.0
2017-Sep-07 11:30N 31°19' E 121°41'0 0.0
2017-Sep-07 11:00N 31°19' E 121°41'0 0.0
2017-Sep-07 10:30N 31°19' E 121°41'0 0.0
2017-Sep-07 09:48N 31°19' E 121°41'0 0.0
2017-Sep-07 09:24N 31°19' E 121°41'0 0.0
2017-Sep-07 09:00N 31°19' E 121°41'0 0.0
2017-Sep-07 08:30N 31°19' E 121°41'0 0.0
2017-Sep-07 08:00N 31°19' E 121°41'0 0.0
2017-Sep-07 07:30N 31°19' E 121°41'0 0.0
2017-Sep-07 07:00N 31°19' E 121°41'0 0.0
2017-Sep-07 06:24N 31°19' E 121°41'0 0.0
2017-Sep-07 06:00N 31°19' E 121°41'0 0.0
2017-Sep-07 05:30N 31°19' E 121°41'0 0.0
2017-Sep-07 05:00N 31°19' E 121°41'0 0.1
2017-Sep-07 04:30N 31°19' E 121°41'2 3.8
2017-Sep-07 04:00N 31°18' E 121°43'511.0
2017-Sep-07 03:30N 31°14' E 121°47'713.6
2017-Sep-07 03:00N 31°09' E 121°53'611.1
2017-Sep-07 02:30N 31°06' E 121°58'  

Dump ship's entire track history